createdAt,value
2022-09-18T00:02:21.836Z,7.20
2022-09-18T00:04:48.899Z,7.20
2022-09-18T00:07:15.987Z,7.20
2022-09-18T00:09:43.651Z,7.20
2022-09-18T00:12:10.653Z,7.20
2022-09-18T00:14:37.729Z,7.20
2022-09-18T00:17:08.892Z,7.30
2022-09-18T00:19:36.292Z,7.20
2022-09-18T00:22:03.296Z,7.20
2022-09-18T00:24:30.493Z,7.20
2022-09-18T00:26:57.495Z,7.20
2022-09-18T00:29:24.491Z,7.20
2022-09-18T00:31:51.589Z,7.10
2022-09-18T00:34:18.654Z,7.20
2022-09-18T00:36:45.667Z,7.20
2022-09-18T00:39:12.798Z,7.20
2022-09-18T00:41:40.210Z,7.20
2022-09-18T00:44:28.659Z,7.20
2022-09-18T00:46:56.687Z,7.20
2022-09-18T00:49:24.645Z,7.20
2022-09-18T00:51:52.354Z,7.20
2022-09-18T00:54:25.930Z,7.20
2022-09-18T00:56:53.782Z,7.20
2022-09-18T00:59:23.405Z,7.20
2022-09-18T01:01:50.515Z,7.20
2022-09-18T01:04:17.546Z,7.10
2022-09-18T01:06:49.103Z,7.10
2022-09-18T01:09:28.313Z,7.20
2022-09-18T01:11:59.364Z,7.20
2022-09-18T01:14:28.469Z,7.20
2022-09-18T01:17:04.423Z,7.20
2022-09-18T01:19:34.450Z,7.10
2022-09-18T01:22:07.938Z,7.20
2022-09-18T01:24:45.295Z,7.20
2022-09-18T01:27:38.854Z,7.20
2022-09-18T01:30:09.299Z,7.20
2022-09-18T01:32:42.845Z,7.20
2022-09-18T01:35:36.912Z,7.20
2022-09-18T01:38:04.204Z,7.20
2022-09-18T01:40:31.938Z,7.30
2022-09-18T01:42:59.751Z,7.20
2022-09-18T01:45:28.058Z,7.30
2022-09-18T01:47:56.678Z,7.30
2022-09-18T01:50:24.870Z,7.30
2022-09-18T01:53:12.147Z,7.30
2022-09-18T01:55:39.143Z,7.40
2022-09-18T01:58:07.138Z,7.30
2022-09-18T02:00:35.063Z,7.40
2022-09-18T02:03:03.179Z,7.40
2022-09-18T02:05:43.478Z,7.40
2022-09-18T02:08:31.742Z,7.40
2022-09-18T02:11:13.330Z,7.40
2022-09-18T02:13:56.294Z,7.40
2022-09-18T02:16:32.160Z,7.40
2022-09-18T02:19:00.169Z,7.40
2022-09-18T02:21:27.698Z,7.50
2022-09-18T02:23:59.577Z,7.50
2022-09-18T02:26:26.590Z,7.50
2022-09-18T02:28:53.687Z,7.50
2022-09-18T02:31:21.134Z,7.50
2022-09-18T02:33:48.733Z,7.50
2022-09-18T02:36:30.190Z,7.60
2022-09-18T02:38:57.604Z,7.60
2022-09-18T02:41:32.918Z,7.60
2022-09-18T02:44:12.667Z,7.60
2022-09-18T02:46:42.899Z,7.60
2022-09-18T02:49:16.994Z,7.60
2022-09-18T02:51:47.203Z,7.70
2022-09-18T02:54:17.516Z,7.70
2022-09-18T02:56:46.024Z,7.70
2022-09-18T02:59:26.567Z,7.70
2022-09-18T03:01:56.966Z,7.80
2022-09-18T03:04:25.985Z,7.80
2022-09-18T03:07:14.639Z,7.80
2022-09-18T03:09:45.843Z,7.80
2022-09-18T03:12:14.860Z,7.80
2022-09-18T03:14:47.462Z,7.80
2022-09-18T03:17:14.499Z,7.80
2022-09-18T03:19:44.694Z,7.90
2022-09-18T03:22:12.847Z,7.90
2022-09-18T03:24:39.920Z,7.90
2022-09-18T03:27:07.430Z,7.90
2022-09-18T03:29:35.867Z,7.90
2022-09-18T03:32:03.313Z,7.90
2022-09-18T03:34:37.127Z,7.90
2022-09-18T03:37:04.183Z,8.00
2022-09-18T03:39:31.207Z,8.00
2022-09-18T03:41:58.582Z,7.90
2022-09-18T03:44:25.595Z,7.90
2022-09-18T03:46:52.685Z,8.00
2022-09-18T03:49:20.160Z,7.90
2022-09-18T03:51:47.175Z,7.90
2022-09-18T03:54:14.657Z,7.90
2022-09-18T03:56:41.715Z,7.90
2022-09-18T03:59:14.347Z,7.90
2022-09-18T04:02:04.655Z,8.00
2022-09-18T04:04:50.417Z,7.90
2022-09-18T04:07:18.202Z,7.90
2022-09-18T04:09:59.968Z,8.00
2022-09-18T04:12:27.205Z,7.90
2022-09-18T04:15:06.118Z,8.00
2022-09-18T04:17:33.133Z,8.00
2022-09-18T04:20:00.202Z,8.00
2022-09-18T04:22:27.645Z,8.00
2022-09-18T04:24:56.205Z,8.00
2022-09-18T04:27:23.286Z,8.00
2022-09-18T04:29:51.119Z,8.00
2022-09-18T04:32:19.390Z,8.00
2022-09-18T04:34:46.914Z,8.00
2022-09-18T04:37:14.435Z,8.00
2022-09-18T04:39:41.785Z,8.10
2022-09-18T04:42:09.875Z,8.10
2022-09-18T04:44:38.255Z,8.00
2022-09-18T04:47:06.210Z,8.00
2022-09-18T04:49:33.206Z,8.10
2022-09-18T04:52:01.400Z,8.10
2022-09-18T04:54:29.814Z,8.10
2022-09-18T04:56:57.437Z,8.10
2022-09-18T04:59:24.598Z,8.00
2022-09-18T05:01:55.629Z,8.10
2022-09-18T05:04:22.713Z,8.10
2022-09-18T05:07:06.818Z,8.10
2022-09-18T05:09:36.221Z,8.10
2022-09-18T05:12:05.203Z,8.10
2022-09-18T05:14:32.846Z,8.10
2022-09-18T05:17:03.029Z,8.10
2022-09-18T05:19:41.945Z,8.10
2022-09-18T05:22:18.495Z,8.10
2022-09-18T05:24:48.745Z,8.10
2022-09-18T05:27:15.735Z,8.10
2022-09-18T05:29:43.174Z,8.10
2022-09-18T05:32:14.811Z,8.20
2022-09-18T05:34:42.912Z,8.20
2022-09-18T05:37:10.561Z,8.20
2022-09-18T05:39:39.623Z,8.20
2022-09-18T05:42:06.710Z,8.30
2022-09-18T05:44:33.706Z,8.30
2022-09-18T05:47:01.261Z,8.30
2022-09-18T05:49:28.413Z,8.30
2022-09-18T05:51:56.600Z,8.30
2022-09-18T05:54:23.645Z,8.30
2022-09-18T05:56:51.570Z,8.30
2022-09-18T05:59:18.575Z,8.30
2022-09-18T06:01:48.316Z,8.40
2022-09-18T06:04:38.203Z,8.40
2022-09-18T06:07:08.858Z,8.40
2022-09-18T06:09:35.939Z,8.40
2022-09-18T06:12:02.950Z,8.40
2022-09-18T06:14:34.074Z,8.50
2022-09-18T06:17:01.183Z,8.50
2022-09-18T06:19:28.603Z,8.50
2022-09-18T06:21:58.724Z,8.50
2022-09-18T06:24:26.330Z,8.50
2022-09-18T06:27:07.529Z,8.60
2022-09-18T06:29:34.878Z,8.60
2022-09-18T06:32:23.434Z,8.60
2022-09-18T06:34:50.531Z,8.60
2022-09-18T06:37:17.777Z,8.60
2022-09-18T06:39:44.830Z,8.60
2022-09-18T06:42:30.302Z,8.60
2022-09-18T06:45:19.979Z,8.60
2022-09-18T06:47:54.142Z,8.60
2022-09-18T06:50:22.822Z,8.50
2022-09-18T06:52:50.124Z,8.50
2022-09-18T06:55:17.497Z,8.50
2022-09-18T06:57:55.367Z,8.50
2022-09-18T07:00:22.566Z,8.50
2022-09-18T07:03:01.883Z,8.50
2022-09-18T07:05:49.177Z,8.50
2022-09-18T07:08:30.547Z,8.50
2022-09-18T07:11:08.444Z,8.50
2022-09-18T07:13:37.437Z,8.50
2022-09-18T07:16:06.155Z,8.50
2022-09-18T07:18:33.366Z,8.50
2022-09-18T07:21:00.871Z,8.50
2022-09-18T07:23:33.919Z,8.50
2022-09-18T07:26:02.665Z,8.50
2022-09-18T07:28:29.686Z,8.50
2022-09-18T07:31:06.687Z,8.50
2022-09-18T07:33:33.967Z,8.60
2022-09-18T07:36:01.632Z,8.60
2022-09-18T07:38:30.070Z,8.60
2022-09-18T07:41:00.798Z,8.60
2022-09-18T07:43:32.313Z,8.60
2022-09-18T07:46:00.909Z,8.60
2022-09-18T07:48:30.444Z,8.70
2022-09-18T07:51:06.664Z,8.70
2022-09-18T07:53:37.414Z,8.70
2022-09-18T07:56:08.874Z,8.70
2022-09-18T07:58:36.422Z,8.60
2022-09-18T08:01:19.846Z,8.70
2022-09-18T08:03:50.503Z,8.70
2022-09-18T08:06:20.375Z,8.70
2022-09-18T08:08:55.422Z,8.70
2022-09-18T08:11:42.686Z,8.70
2022-09-18T08:14:29.085Z,8.70
2022-09-18T08:17:15.117Z,8.80
2022-09-18T08:20:02.673Z,8.70
2022-09-18T08:22:42.689Z,8.80
2022-09-18T08:25:10.939Z,8.80
2022-09-18T08:27:38.180Z,8.80
2022-09-18T08:30:06.449Z,8.80
2022-09-18T08:32:33.629Z,8.90
2022-09-18T08:35:01.153Z,8.90
2022-09-18T08:37:29.166Z,8.90
2022-09-18T08:40:15.006Z,8.90
2022-09-18T08:43:07.343Z,9.00
2022-09-18T08:46:04.067Z,9.10
2022-09-18T08:48:33.375Z,9.10
2022-09-18T08:51:09.709Z,9.10
2022-09-18T08:53:38.699Z,9.20
2022-09-18T08:56:28.576Z,9.20
2022-09-18T08:59:34.609Z,9.20
2022-09-18T09:02:03.165Z,9.20
2022-09-18T09:04:30.259Z,9.30
2022-09-18T09:07:04.907Z,9.30
2022-09-18T09:09:42.445Z,9.40
2022-09-18T09:12:30.226Z,9.50
2022-09-18T09:15:12.111Z,9.50
2022-09-18T09:17:59.462Z,9.50
2022-09-18T09:20:45.715Z,9.60
2022-09-18T09:23:16.926Z,9.70
2022-09-18T09:26:00.365Z,9.70
2022-09-18T09:28:53.623Z,9.80
2022-09-18T09:31:42.968Z,9.80
2022-09-18T09:34:32.579Z,9.70
2022-09-18T09:37:33.167Z,9.70
2022-09-18T09:40:05.671Z,9.70
2022-09-18T09:42:44.254Z,9.70
2022-09-18T09:45:15.879Z,9.80
2022-09-18T09:47:46.306Z,9.80
2022-09-18T09:50:25.775Z,9.90
2022-09-18T09:52:54.171Z,9.90
2022-09-18T09:55:21.957Z,10.00
2022-09-18T09:58:09.841Z,10.00
2022-09-18T10:01:06.266Z,10.00
2022-09-18T10:03:35.337Z,10.10
2022-09-18T10:06:09.593Z,10.10
2022-09-18T10:08:45.148Z,10.20
2022-09-18T10:11:13.104Z,10.20
2022-09-18T10:13:44.607Z,10.20
2022-09-18T10:16:33.525Z,10.30
2022-09-18T10:19:01.437Z,10.30
2022-09-18T10:21:28.982Z,10.30
2022-09-18T10:23:58.257Z,10.40
2022-09-18T10:26:28.040Z,10.40
2022-09-18T10:28:55.454Z,10.30
2022-09-18T10:31:23.045Z,10.40
2022-09-18T10:33:53.072Z,10.40
2022-09-18T10:36:29.671Z,10.50
2022-09-18T10:38:58.772Z,10.60
2022-09-18T10:41:36.720Z,10.60
2022-09-18T10:44:14.658Z,10.70
2022-09-18T10:47:09.775Z,10.60
2022-09-18T10:49:40.927Z,10.60
2022-09-18T10:52:27.104Z,10.60
2022-09-18T10:55:01.531Z,10.60
2022-09-18T10:57:32.076Z,10.60
2022-09-18T11:00:04.920Z,10.60
2022-09-18T11:02:34.567Z,10.70
2022-09-18T11:05:01.867Z,10.60
2022-09-18T11:07:34.756Z,10.70
2022-09-18T11:10:06.769Z,10.70
2022-09-18T11:12:35.034Z,10.70
2022-09-18T11:15:04.122Z,10.70
2022-09-18T11:17:32.478Z,10.70
2022-09-18T11:20:01.872Z,10.70
2022-09-18T11:22:41.371Z,10.60
2022-09-18T11:25:19.071Z,10.60
2022-09-18T11:27:52.137Z,10.60
2022-09-18T11:30:27.850Z,10.70
2022-09-18T11:33:02.560Z,10.70
2022-09-18T11:35:30.524Z,10.70
2022-09-18T11:37:58.531Z,10.80
2022-09-18T11:40:44.962Z,10.80
2022-09-18T11:43:16.847Z,10.90
2022-09-18T11:45:49.469Z,10.90
2022-09-18T11:48:36.519Z,10.90
2022-09-18T11:51:05.026Z,10.90
2022-09-18T11:53:33.686Z,10.90
2022-09-18T11:56:14.405Z,10.90
2022-09-18T11:58:43.392Z,11.00
2022-09-18T12:01:18.322Z,11.00
2022-09-18T12:03:51.817Z,10.80
2022-09-18T12:06:30.426Z,10.70
2022-09-18T12:09:10.662Z,10.50
2022-09-18T12:11:43.759Z,10.40
2022-09-18T12:14:12.720Z,10.30
2022-09-18T12:17:00.919Z,10.10
2022-09-18T12:19:38.906Z,10.00
2022-09-18T12:22:13.766Z,10.00
2022-09-18T12:24:41.064Z,9.90
2022-09-18T12:27:19.081Z,9.90
2022-09-18T12:30:00.853Z,9.90
2022-09-18T12:32:27.873Z,9.90
2022-09-18T12:34:57.767Z,9.90
2022-09-18T12:37:38.205Z,10.00
2022-09-18T12:40:22.719Z,10.00
2022-09-18T12:42:55.875Z,10.10
2022-09-18T12:45:25.999Z,10.20
2022-09-18T12:48:02.289Z,10.20
2022-09-18T12:50:32.371Z,10.20
2022-09-18T12:53:11.711Z,10.10
2022-09-18T12:55:41.817Z,10.10
2022-09-18T12:58:11.843Z,10.10
2022-09-18T13:00:38.974Z,10.00
2022-09-18T13:03:15.145Z,10.00
2022-09-18T13:05:52.154Z,9.90
2022-09-18T13:08:37.954Z,9.80
2022-09-18T13:11:08.271Z,9.80
2022-09-18T13:13:35.271Z,9.90
2022-09-18T13:16:05.006Z,10.10
2022-09-18T13:18:37.605Z,10.20
2022-09-18T13:21:05.823Z,10.30
2022-09-18T13:23:33.644Z,10.30
2022-09-18T13:26:00.801Z,10.40
2022-09-18T13:28:27.846Z,10.50
2022-09-18T13:31:24.533Z,10.60
2022-09-18T13:33:57.597Z,10.60
2022-09-18T13:36:25.935Z,10.70
2022-09-18T13:38:52.948Z,10.70
2022-09-18T13:41:19.952Z,10.80
2022-09-18T13:43:51.257Z,10.90
2022-09-18T13:46:31.814Z,11.00
2022-09-18T13:48:59.848Z,11.10
2022-09-18T13:51:31.100Z,11.30
2022-09-18T13:54:10.962Z,11.50
2022-09-18T13:56:56.856Z,11.50
2022-09-18T13:59:23.889Z,11.60
2022-09-18T14:01:58.496Z,11.60
2022-09-18T14:04:40.973Z,11.60
2022-09-18T14:07:17.144Z,11.60
2022-09-18T14:09:54.305Z,11.50
2022-09-18T14:12:21.549Z,11.50
2022-09-18T14:15:01.833Z,11.50
2022-09-18T14:17:29.499Z,11.50
2022-09-18T14:20:05.906Z,11.50
2022-09-18T14:22:34.871Z,11.50
2022-09-18T14:25:03.366Z,11.40
2022-09-18T14:27:30.502Z,11.40
2022-09-18T14:30:03.172Z,11.40
2022-09-18T14:32:30.198Z,11.40
2022-09-18T14:35:16.088Z,11.40
2022-09-18T14:37:43.141Z,11.40
2022-09-18T14:40:24.698Z,11.40
2022-09-18T14:42:51.994Z,11.40
2022-09-18T14:45:25.467Z,11.50
2022-09-18T14:47:52.550Z,11.40
2022-09-18T14:50:23.536Z,11.40
2022-09-18T14:52:50.581Z,11.40
2022-09-18T14:55:19.226Z,11.40
2022-09-18T14:57:47.933Z,11.40
2022-09-18T15:00:25.383Z,11.40
2022-09-18T15:02:58.286Z,11.40
2022-09-18T15:05:25.519Z,11.40
2022-09-18T15:08:01.728Z,11.40
2022-09-18T15:10:28.984Z,11.40
2022-09-18T15:12:56.166Z,11.40
2022-09-18T15:15:27.477Z,11.40
2022-09-18T15:17:54.603Z,11.40
2022-09-18T15:20:21.957Z,11.30
2022-09-18T15:22:48.976Z,11.30
2022-09-18T15:25:16.242Z,11.30
2022-09-18T15:27:43.411Z,11.30
2022-09-18T15:30:18.677Z,11.30
2022-09-18T15:32:46.473Z,11.30
2022-09-18T15:35:18.118Z,11.30
2022-09-18T15:37:51.266Z,11.30
2022-09-18T15:40:19.230Z,11.30
2022-09-18T15:43:03.518Z,11.20
2022-09-18T15:45:31.450Z,11.20
2022-09-18T15:47:59.311Z,11.20
2022-09-18T15:50:31.606Z,11.20
2022-09-18T15:52:58.722Z,11.10
2022-09-18T15:55:28.685Z,11.20
2022-09-18T15:57:56.606Z,11.10
2022-09-18T16:00:24.450Z,11.10
2022-09-18T16:02:55.285Z,11.10
2022-09-18T16:05:22.405Z,11.10
2022-09-18T16:07:53.585Z,11.10
2022-09-18T16:10:37.045Z,11.10
2022-09-18T16:13:13.189Z,11.10
2022-09-18T16:15:40.859Z,11.00
2022-09-18T16:18:27.155Z,11.00
2022-09-18T16:20:54.869Z,11.00
2022-09-18T16:23:27.050Z,11.00
2022-09-18T16:26:05.781Z,11.00
2022-09-18T16:28:33.810Z,10.90
2022-09-18T16:31:00.898Z,10.90
2022-09-18T16:33:29.370Z,10.90
2022-09-18T16:36:04.266Z,10.90
2022-09-18T16:38:32.375Z,10.90
2022-09-18T16:40:59.614Z,10.80
2022-09-18T16:43:26.635Z,10.80
2022-09-18T16:45:54.939Z,10.80
2022-09-18T16:48:22.618Z,10.80
2022-09-18T16:50:49.649Z,10.80
2022-09-18T16:53:16.744Z,10.80
2022-09-18T16:55:44.899Z,10.70
2022-09-18T16:58:12.007Z,10.80
2022-09-18T17:00:39.063Z,10.70
2022-09-18T17:03:06.504Z,10.70
2022-09-18T17:05:34.587Z,10.70
2022-09-18T17:08:03.889Z,10.70
2022-09-18T17:10:31.446Z,10.70
2022-09-18T17:12:58.548Z,10.70
2022-09-18T17:15:25.570Z,10.70
2022-09-18T17:17:52.728Z,10.70
2022-09-18T17:20:19.757Z,10.70
2022-09-18T17:22:47.218Z,10.70
2022-09-18T17:25:14.730Z,10.60
2022-09-18T17:27:43.699Z,10.60
2022-09-18T17:30:11.586Z,10.60
2022-09-18T17:32:38.777Z,10.60
2022-09-18T17:35:06.463Z,10.60
2022-09-18T17:37:33.576Z,10.60
2022-09-18T17:40:01.710Z,10.60
2022-09-18T17:42:28.873Z,10.60
2022-09-18T17:44:56.609Z,10.60
2022-09-18T17:47:23.836Z,10.60
2022-09-18T17:49:50.937Z,10.60
2022-09-18T17:52:17.947Z,10.60
2022-09-18T17:54:44.995Z,10.60
2022-09-18T17:57:12.019Z,10.60
2022-09-18T17:59:39.271Z,10.60
2022-09-18T18:02:07.235Z,10.60
2022-09-18T18:04:34.362Z,10.60
2022-09-18T18:07:01.773Z,10.50
2022-09-18T18:09:28.902Z,10.50
2022-09-18T18:11:55.962Z,10.50
2022-09-18T18:14:25.968Z,10.50
2022-09-18T18:16:54.294Z,10.50
2022-09-18T18:19:21.359Z,10.50
2022-09-18T18:21:48.365Z,10.50
2022-09-18T18:24:16.221Z,10.50
2022-09-18T18:26:43.425Z,10.50
2022-09-18T18:29:11.317Z,10.50
2022-09-18T18:31:38.989Z,10.50
2022-09-18T18:34:06.550Z,10.50
2022-09-18T18:36:33.800Z,10.60
2022-09-18T18:39:01.247Z,10.50
2022-09-18T18:41:29.170Z,10.50
2022-09-18T18:43:56.760Z,10.50
2022-09-18T18:46:24.302Z,10.50
2022-09-18T18:49:01.678Z,10.50
2022-09-18T18:51:29.684Z,10.50
2022-09-18T18:53:56.843Z,10.50
2022-09-18T18:56:23.910Z,10.50
2022-09-18T18:58:54.649Z,10.50
2022-09-18T19:01:21.740Z,10.50
2022-09-18T19:03:49.526Z,10.50
2022-09-18T19:06:43.088Z,10.50
2022-09-18T19:09:11.219Z,10.50
2022-09-18T19:11:50.447Z,10.50
2022-09-18T19:14:18.431Z,10.40
2022-09-18T19:16:45.722Z,10.40
2022-09-18T19:19:13.020Z,10.40
2022-09-18T19:21:40.061Z,10.40
2022-09-18T19:24:07.861Z,10.40
2022-09-18T19:26:35.098Z,10.40
2022-09-18T19:29:04.697Z,10.40
2022-09-18T19:31:32.716Z,10.30
2022-09-18T19:33:59.785Z,10.40
2022-09-18T19:36:27.268Z,10.30
2022-09-18T19:38:55.189Z,10.30
2022-09-18T19:41:29.703Z,10.30
2022-09-18T19:43:57.394Z,10.30
2022-09-18T19:46:25.340Z,10.30
2022-09-18T19:48:52.394Z,10.40
2022-09-18T19:51:19.402Z,10.40
2022-09-18T19:53:46.557Z,10.40
2022-09-18T19:56:33.038Z,10.40
2022-09-18T19:59:00.654Z,10.40
2022-09-18T20:01:27.663Z,10.50
2022-09-18T20:03:54.751Z,10.50
2022-09-18T20:06:22.899Z,10.60
2022-09-18T20:08:50.030Z,10.60
2022-09-18T20:11:17.073Z,10.60
2022-09-18T20:13:44.088Z,10.60
2022-09-18T20:16:11.266Z,10.60
2022-09-18T20:18:38.360Z,10.70
2022-09-18T20:21:06.378Z,10.60
2022-09-18T20:23:33.613Z,10.60
2022-09-18T20:26:00.693Z,10.60
2022-09-18T20:28:28.385Z,10.60
2022-09-18T20:30:55.438Z,10.60
2022-09-18T20:33:22.441Z,10.60
2022-09-18T20:35:53.935Z,10.60
2022-09-18T20:38:20.944Z,10.70
2022-09-18T20:40:56.061Z,10.70
2022-09-18T20:43:23.057Z,10.70
2022-09-18T20:45:59.905Z,10.70
2022-09-18T20:48:33.053Z,10.60
2022-09-18T20:51:00.621Z,10.70
2022-09-18T20:53:27.753Z,10.70
2022-09-18T20:55:58.283Z,10.70
2022-09-18T20:58:25.722Z,10.70
2022-09-18T21:00:54.154Z,10.80
2022-09-18T21:03:21.282Z,10.80
2022-09-18T21:05:53.012Z,10.80
2022-09-18T21:08:29.827Z,10.80
2022-09-18T21:10:56.857Z,10.80
2022-09-18T21:13:23.895Z,10.80
2022-09-18T21:15:50.963Z,10.80
2022-09-18T21:18:19.070Z,10.80
2022-09-18T21:20:46.059Z,10.80
2022-09-18T21:23:31.802Z,10.80
2022-09-18T21:25:58.804Z,10.80
2022-09-18T21:28:25.818Z,10.80
2022-09-18T21:30:52.882Z,10.90
2022-09-18T21:33:20.043Z,10.80
2022-09-18T21:35:50.910Z,10.80
2022-09-18T21:38:17.974Z,10.80
2022-09-18T21:40:45.481Z,10.80
2022-09-18T21:43:14.194Z,10.70
2022-09-18T21:45:41.238Z,10.60
2022-09-18T21:48:08.334Z,10.50
2022-09-18T21:50:36.266Z,10.50
2022-09-18T21:53:03.289Z,10.40
2022-09-18T21:55:33.697Z,10.40
2022-09-18T21:58:00.702Z,10.40
2022-09-18T22:00:27.738Z,10.30
2022-09-18T22:02:54.765Z,10.30
2022-09-18T22:05:22.059Z,10.20
2022-09-18T22:07:49.062Z,10.10
2022-09-18T22:10:16.064Z,9.90
2022-09-18T22:12:43.077Z,9.70
2022-09-18T22:15:10.390Z,9.60
2022-09-18T22:17:38.597Z,9.40
2022-09-18T22:20:05.934Z,9.30
2022-09-18T22:22:32.973Z,9.20
2022-09-18T22:25:00.197Z,9.20
2022-09-18T22:27:27.223Z,9.10
2022-09-18T22:29:54.284Z,9.00
2022-09-18T22:32:22.126Z,9.00
2022-09-18T22:34:50.522Z,9.00
2022-09-18T22:37:17.523Z,8.90
2022-09-18T22:39:44.558Z,8.90
2022-09-18T22:42:11.580Z,8.90
2022-09-18T22:44:38.673Z,8.90
2022-09-18T22:47:05.902Z,8.90
2022-09-18T22:49:32.892Z,8.80
2022-09-18T22:51:59.967Z,8.80
2022-09-18T22:54:27.546Z,8.80
2022-09-18T22:56:55.144Z,8.80
2022-09-18T22:59:23.079Z,8.80
2022-09-18T23:01:51.670Z,8.80
2022-09-18T23:04:19.218Z,8.90
2022-09-18T23:06:46.682Z,8.90
2022-09-18T23:09:13.792Z,8.80
2022-09-18T23:11:40.998Z,8.80
2022-09-18T23:14:08.586Z,8.80
2022-09-18T23:16:36.080Z,8.80
2022-09-18T23:19:07.133Z,8.80
2022-09-18T23:21:34.342Z,8.80
2022-09-18T23:24:04.882Z,8.80
2022-09-18T23:26:35.099Z,8.80
2022-09-18T23:29:03.938Z,8.80
2022-09-18T23:31:31.766Z,8.80
2022-09-18T23:33:59.638Z,8.80
2022-09-18T23:36:27.449Z,8.80
2022-09-18T23:38:58.485Z,8.80
2022-09-18T23:41:25.678Z,8.90
2022-09-18T23:43:53.232Z,8.90
2022-09-18T23:46:20.490Z,8.90
2022-09-18T23:48:54.586Z,8.90
2022-09-18T23:51:25.711Z,8.90
2022-09-18T23:53:52.812Z,8.80
2022-09-18T23:56:19.930Z,8.80
2022-09-18T23:58:46.922Z,8.80
